Time;durP1;ratioP1;P1;durP2;ratioP2;P2;SDS_P1;SDS_P2;PMS_P1;PMS_P2;Temp;Humidity;BMP_temperature;BMP_pressure;BME280_temperature;BME280_humidity;BME280_pressure;Samples;Min_cycle;Max_cycle;Signal;HPM_P1;HPM_P2
2022/04/03 00:00:40;;;;;;;4.70;2.75;;;6.10;64.60;;;;;;6005176;29;20042;-69
2022/04/03 00:03:41;;;;;;;3.35;2.08;;;6.10;64.60;;;;;;6006440;29;20064;-68
2022/04/03 00:06:42;;;;;;;3.97;2.70;;;6.10;64.50;;;;;;6002236;29;20041;-68
2022/04/03 00:09:43;;;;;;;10.35;2.70;;;6.20;64.40;;;;;;6006360;29;20077;-68
2022/04/03 00:12:46;;;;;;;3.47;2.33;;;6.20;64.30;;;;;;5999433;29;20113;-69
2022/04/03 00:15:47;;;;;;;3.25;1.90;;;6.20;64.20;;;;;;5984985;29;20084;-69
2022/04/03 00:18:49;;;;;;;4.85;2.60;;;6.20;64.50;;;;;;6021740;29;20064;-69
2022/04/03 00:21:50;;;;;;;3.78;2.33;;;6.10;64.40;;;;;;6020139;29;20118;-69
2022/04/03 00:24:52;;;;;;;4.18;2.75;;;6.20;65.20;;;;;;6007612;29;20452;-70
2022/04/03 00:27:53;;;;;;;4.18;2.67;;;6.10;64.20;;;;;;6020704;29;20049;-70
2022/04/03 00:30:55;;;;;;;3.97;2.80;;;6.20;64.40;;;;;;6005710;29;20061;-68
2022/04/03 00:33:56;;;;;;;4.63;2.80;;;6.20;64.50;;;;;;5982426;29;20443;-68
2022/04/03 00:36:57;;;;;;;3.90;2.63;;;6.20;64.50;;;;;;6020059;29;20037;-69
2022/04/03 00:39:58;;;;;;;3.63;2.88;;;6.20;64.50;;;;;;6022518;29;20462;-68
2022/04/03 00:42:59;;;;;;;8.98;2.55;;;6.20;64.70;;;;;;6022396;29;20033;-69
2022/04/03 00:46:01;;;;;;;3.95;2.78;;;6.20;64.70;;;;;;6006208;29;20034;-70
2022/04/03 00:49:02;;;;;;;5.18;2.80;;;6.30;64.80;;;;;;6021761;29;20098;-68
2022/04/03 00:52:04;;;;;;;4.68;2.78;;;6.30;64.90;;;;;;6022061;29;20110;-71
2022/04/03 00:55:06;;;;;;;3.72;2.67;;;6.30;64.80;;;;;;6022250;29;20074;-68
2022/04/03 00:58:09;;;;;;;3.67;2.28;;;6.30;64.80;;;;;;6006479;29;20434;-70
2022/04/03 01:01:11;;;;;;;5.03;2.75;;;6.40;64.60;;;;;;6026702;29;20452;-69
2022/04/03 01:04:12;;;;;;;6.25;3.00;;;6.40;64.40;;;;;;6002657;29;20101;-69
2022/04/03 01:07:14;;;;;;;9.63;3.10;;;6.30;64.30;;;;;;6006710;29;20044;-68
2022/04/03 01:10:15;;;;;;;4.85;3.03;;;6.30;64.10;;;;;;6006825;29;20053;-68
2022/04/03 01:13:16;;;;;;;4.32;2.65;;;6.40;64.10;;;;;;6003622;29;20041;-69
2022/04/03 01:16:17;;;;;;;4.60;2.55;;;6.30;63.90;;;;;;6022563;29;20364;-69
2022/04/03 01:19:18;;;;;;;6.53;3.28;;;6.30;64.10;;;;;;6021958;29;20041;-69
2022/04/03 01:22:19;;;;;;;4.53;2.70;;;6.30;64.10;;;;;;5998861;29;20044;-68
2022/04/03 01:25:20;;;;;;;4.15;2.22;;;6.30;64.00;;;;;;6019291;29;20038;-69
2022/04/03 01:28:23;;;;;;;5.85;2.17;;;6.30;64.10;;;;;;5987947;29;20045;-69
2022/04/03 01:31:24;;;;;;;5.55;2.65;;;6.30;64.20;;;;;;6009801;29;20425;-69
2022/04/03 01:34:26;;;;;;;6.70;2.85;;;6.30;64.20;;;;;;6003922;29;20042;-68
2022/04/03 01:37:28;;;;;;;4.13;2.70;;;6.30;64.10;;;;;;6003704;29;20077;-69
2022/04/03 01:40:29;;;;;;;7.18;2.90;;;6.30;64.10;;;;;;6018580;29;20297;-69
2022/04/03 01:43:30;;;;;;;6.47;3.03;;;6.30;64.10;;;;;;5990059;29;20061;-69
2022/04/03 01:46:31;;;;;;;4.60;2.85;;;6.30;64.00;;;;;;6003590;29;20114;-70
2022/04/03 01:49:31;;;;;;;6.45;3.05;;;6.20;64.00;;;;;;6003657;29;20041;-70
2022/04/03 01:52:32;;;;;;;4.85;2.92;;;6.10;64.00;;;;;;6021695;29;20054;-69
2022/04/03 01:55:33;;;;;;;5.93;2.88;;;6.10;63.90;;;;;;6003236;29;20094;-70
2022/04/03 01:58:34;;;;;;;7.15;2.65;;;6.10;64.00;;;;;;6005493;29;20388;-69
2022/04/03 02:01:36;;;;;;;6.20;3.00;;;6.00;64.20;;;;;;6020604;29;20041;-69
2022/04/03 02:04:37;;;;;;;4.43;3.10;;;6.00;64.20;;;;;;6004941;29;20045;-69
2022/04/03 02:07:39;;;;;;;5.60;2.65;;;6.00;64.20;;;;;;6007053;29;20052;-70
2022/04/03 02:10:40;;;;;;;5.90;2.70;;;6.00;64.20;;;;;;6016548;29;20057;-69
2022/04/03 02:13:41;;;;;;;7.05;3.25;;;6.00;64.30;;;;;;6019390;29;20145;-69
2022/04/03 02:16:42;;;;;;;4.80;2.60;;;5.90;64.30;;;;;;6005812;29;20165;-69
2022/04/03 02:19:44;;;;;;;4.55;2.95;;;5.90;64.40;;;;;;6004850;29;20037;-69
2022/04/03 02:22:45;;;;;;;5.35;3.00;;;5.80;64.30;;;;;;6006073;29;20030;-69
2022/04/03 02:25:49;;;;;;;6.13;3.05;;;5.80;64.10;;;;;;6016223;29;20042;-70
2022/04/03 02:28:50;;;;;;;3.45;2.22;;;5.80;64.00;;;;;;6020228;29;20029;-70
2022/04/03 02:31:51;;;;;;;5.85;3.35;;;5.80;64.10;;;;;;6002829;29;20041;-70
2022/04/03 02:34:53;;;;;;;5.22;3.13;;;5.80;63.90;;;;;;6004821;29;20136;-70
2022/04/03 02:37:54;;;;;;;4.63;2.78;;;5.80;63.70;;;;;;6020551;29;20074;-70
2022/04/03 02:40:54;;;;;;;6.32;3.30;;;5.80;63.70;;;;;;6019175;29;20037;-69
2022/04/03 02:43:55;;;;;;;7.30;3.50;;;5.80;63.60;;;;;;6001702;29;20082;-70
2022/04/03 02:46:56;;;;;;;5.90;3.60;;;5.70;63.60;;;;;;6022961;29;20044;-70
2022/04/03 02:49:57;;;;;;;5.90;3.15;;;5.70;63.70;;;;;;6002692;29;20190;-70
2022/04/03 02:52:58;;;;;;;8.05;3.97;;;5.70;63.70;;;;;;5986206;29;20507;-71
2022/04/03 02:55:59;;;;;;;5.13;3.17;;;5.70;63.80;;;;;;6017468;29;20110;-71
2022/04/03 02:59:01;;;;;;;3.90;2.17;;;5.70;63.80;;;;;;6021719;29;20397;-70
2022/04/03 03:02:02;;;;;;;5.95;3.25;;;5.70;64.00;;;;;;6001935;29;20150;-70
2022/04/03 03:05:04;;;;;;;4.90;3.28;;;5.70;64.00;;;;;;6019824;29;20046;-70
2022/04/03 03:08:05;;;;;;;7.53;3.40;;;5.70;64.00;;;;;;6002412;29;20045;-70
2022/04/03 03:11:06;;;;;;;3.58;2.60;;;5.70;64.00;;;;;;5999840;29;20049;-70
2022/04/03 03:14:08;;;;;;;7.00;4.00;;;5.70;64.00;;;;;;6021626;29;20048;-70
2022/04/03 03:17:09;;;;;;;5.13;2.85;;;5.70;64.10;;;;;;5988101;29;20388;-71
2022/04/03 03:20:11;;;;;;;6.00;3.25;;;5.80;64.00;;;;;;6018868;29;20048;-69
2022/04/03 03:23:13;;;;;;;7.35;3.60;;;5.70;63.70;;;;;;6020384;29;20061;-71
2022/04/03 03:26:14;;;;;;;5.97;3.38;;;5.70;63.70;;;;;;6018817;29;20045;-69
2022/04/03 03:29:14;;;;;;;5.25;3.30;;;5.70;64.10;;;;;;6020106;29;20053;-69
2022/04/03 03:32:15;;;;;;;6.68;3.13;;;5.80;63.70;;;;;;6002142;29;20053;-71
2022/04/03 03:35:16;;;;;;;6.18;3.10;;;5.80;63.60;;;;;;6022275;29;20061;-68
2022/04/03 03:38:18;;;;;;;8.93;3.90;;;5.80;63.70;;;;;;6003629;29;20066;-71
2022/04/03 03:41:18;;;;;;;7.00;4.10;;;5.80;63.70;;;;;;6005474;29;20183;-71
2022/04/03 03:44:19;;;;;;;6.88;3.58;;;5.80;63.50;;;;;;6018540;29;20056;-70
2022/04/03 03:47:20;;;;;;;7.20;3.80;;;5.80;63.60;;;;;;6017899;29;20046;-71
2022/04/03 03:50:21;;;;;;;6.50;3.60;;;5.80;63.60;;;;;;5987818;29;20065;-70
2022/04/03 03:53:22;;;;;;;7.45;3.38;;;5.80;63.50;;;;;;6005625;29;20480;-70
2022/04/03 03:56:23;;;;;;;4.85;2.85;;;5.80;63.60;;;;;;6023825;29;20471;-70
2022/04/03 03:59:24;;;;;;;5.53;3.22;;;5.80;63.50;;;;;;6022265;29;20499;-69
2022/04/03 04:02:25;;;;;;;7.28;4.13;;;5.90;63.40;;;;;;6024043;29;20030;-69
2022/04/03 04:05:25;;;;;;;6.82;3.60;;;5.90;63.30;;;;;;6006709;29;20095;-70
2022/04/03 04:08:26;;;;;;;4.95;3.20;;;5.90;63.20;;;;;;6007968;29;20527;-70
2022/04/03 04:11:27;;;;;;;5.50;4.03;;;5.90;62.50;;;;;;6005964;29;20070;-70
2022/04/03 04:14:28;;;;;;;4.53;3.40;;;5.90;63.00;;;;;;6007053;29;20053;-70
2022/04/03 04:17:34;;;;;;;6.72;3.25;;;5.90;63.10;;;;;;6008844;29;20144;-69
2022/04/03 04:20:34;;;;;;;6.53;3.05;;;5.90;62.90;;;;;;6020102;29;20112;-70
2022/04/03 04:23:35;;;;;;;6.25;3.65;;;6.00;63.00;;;;;;6004200;29;20128;-70
2022/04/03 04:26:36;;;;;;;6.00;3.70;;;5.90;62.90;;;;;;6024339;29;20033;-70
2022/04/03 04:29:37;;;;;;;6.18;3.80;;;5.90;62.80;;;;;;6024240;29;20229;-70
2022/04/03 04:32:38;;;;;;;6.57;4.18;;;6.00;63.00;;;;;;6022112;29;20034;-70
2022/04/03 04:35:39;;;;;;;8.07;3.65;;;6.00;63.00;;;;;;6006860;29;20486;-70
2022/04/03 04:38:41;;;;;;;5.95;3.22;;;6.00;63.00;;;;;;6021120;29;20045;-70
2022/04/03 04:41:42;;;;;;;5.82;3.28;;;6.00;63.00;;;;;;6021467;29;20066;-70
2022/04/03 04:44:43;;;;;;;6.75;3.85;;;6.10;62.90;;;;;;6022148;29;20048;-70
2022/04/03 04:47:44;;;;;;;9.25;4.90;;;6.10;62.80;;;;;;5991517;29;20041;-70
2022/04/03 04:50:45;;;;;;;8.77;4.35;;;6.10;62.80;;;;;;5997061;29;20046;-70
2022/04/03 04:53:46;;;;;;;5.53;3.20;;;6.10;62.70;;;;;;6009839;29;20042;-70
2022/04/03 04:56:47;;;;;;;5.13;3.28;;;6.10;62.60;;;;;;6021671;29;20117;-70
2022/04/03 04:59:48;;;;;;;6.15;3.72;;;6.10;62.60;;;;;;6006782;29;20034;-70
2022/04/03 05:02:49;;;;;;;7.00;3.75;;;6.10;62.20;;;;;;6021988;29;20367;-70
2022/04/03 05:05:50;;;;;;;6.72;3.53;;;6.10;62.20;;;;;;6024726;29;20201;-69
2022/04/03 05:08:52;;;;;;;13.15;3.72;;;6.10;62.10;;;;;;6005398;29;20038;-70
2022/04/03 05:11:53;;;;;;;5.93;3.50;;;6.10;62.20;;;;;;6022849;29;20117;-71
2022/04/03 05:14:55;;;;;;;7.70;4.13;;;6.10;62.30;;;;;;6020651;29;20037;-71
2022/04/03 05:17:57;;;;;;;7.65;3.78;;;6.10;62.40;;;;;;6022222;29;20066;-70
2022/04/03 05:20:58;;;;;;;6.43;4.03;;;6.10;62.40;;;;;;6024503;29;20042;-70
2022/04/03 05:23:59;;;;;;;8.27;3.47;;;6.10;62.30;;;;;;6020979;29;20136;-69
2022/04/03 05:27:00;;;;;;;6.88;3.95;;;6.10;62.30;;;;;;6022807;29;20068;-71
2022/04/03 05:30:03;;;;;;;8.98;4.78;;;6.10;62.40;;;;;;6005602;29;20038;-71
2022/04/03 05:33:04;;;;;;;5.63;3.63;;;6.10;62.60;;;;;;6018731;29;20468;-70
2022/04/03 05:36:05;;;;;;;6.15;3.90;;;6.10;62.40;;;;;;6007034;29;20471;-70
2022/04/03 05:39:06;;;;;;;4.80;3.58;;;6.10;62.30;;;;;;6026127;29;20120;-70
2022/04/03 05:42:07;;;;;;;5.63;3.95;;;6.10;62.40;;;;;;6004876;29;20503;-70
2022/04/03 05:45:09;;;;;;;8.30;4.85;;;6.20;62.30;;;;;;6006286;29;20033;-70
2022/04/03 05:48:10;;;;;;;6.10;3.78;;;6.20;62.30;;;;;;6010571;29;20037;-70
2022/04/03 05:51:11;;;;;;;8.30;4.80;;;6.20;62.30;;;;;;6020990;29;20105;-70
2022/04/03 05:54:12;;;;;;;7.88;4.05;;;6.20;62.30;;;;;;5988436;29;20048;-70
2022/04/03 05:57:14;;;;;;;7.85;4.63;;;6.20;62.30;;;;;;6020376;29;20053;-70
2022/04/03 06:00:16;;;;;;;6.25;4.63;;;6.30;62.40;;;;;;6005387;29;20042;-70
2022/04/03 06:03:17;;;;;;;8.32;4.25;;;6.20;62.40;;;;;;6002752;29;20038;-70
2022/04/03 06:06:18;;;;;;;10.23;4.22;;;6.20;62.30;;;;;;6020666;29;20480;-70
2022/04/03 06:09:19;;;;;;;9.48;4.72;;;6.20;62.50;;;;;;6019244;29;20049;-70
2022/04/03 06:12:19;;;;;;;8.40;4.57;;;6.20;62.50;;;;;;6002465;29;20065;-70
2022/04/03 06:15:21;;;;;;;8.48;4.45;;;6.20;62.30;;;;;;5993410;29;20110;-71
2022/04/03 06:18:22;;;;;;;11.02;5.57;;;6.20;62.50;;;;;;5985795;29;20460;-70
2022/04/03 06:21:23;;;;;;;12.05;6.03;;;6.20;62.70;;;;;;6001572;29;20098;-71
2022/04/03 06:24:24;;;;;;;7.50;4.72;;;6.30;62.60;;;;;;5990151;29;20380;-70
2022/04/03 06:27:27;;;;;;;6.68;4.38;;;6.40;62.50;;;;;;5986880;29;20114;-70
2022/04/03 06:30:27;;;;;;;8.98;4.47;;;6.40;62.30;;;;;;6003963;29;20038;-70
2022/04/03 06:33:28;;;;;;;8.38;4.97;;;6.50;62.50;;;;;;5998611;29;20113;-71
2022/04/03 06:36:29;;;;;;;8.05;4.28;;;6.60;62.00;;;;;;6004541;29;20056;-70
2022/04/03 06:39:30;;;;;;;16.17;5.90;;;6.60;61.80;;;;;;6005395;29;20085;-70
2022/04/03 06:42:32;;;;;;;7.18;4.40;;;6.60;61.40;;;;;;6002693;29;20042;-70
2022/04/03 06:45:33;;;;;;;7.28;5.22;;;6.60;62.30;;;;;;5968310;29;20037;-70
2022/04/03 06:48:34;;;;;;;10.07;4.75;;;6.50;61.70;;;;;;6002270;29;20038;-70
2022/04/03 06:51:35;;;;;;;9.25;4.82;;;6.60;61.80;;;;;;5987896;29;20121;-70
2022/04/03 06:54:36;;;;;;;10.15;4.85;;;6.50;61.80;;;;;;5969724;29;20060;-70
2022/04/03 06:57:37;;;;;;;9.77;5.38;;;6.50;61.80;;;;;;5984769;29;20045;-70
2022/04/03 07:00:40;;;;;;;8.13;4.55;;;6.50;61.90;;;;;;5988193;29;20045;-70
2022/04/03 07:03:41;;;;;;;8.95;4.72;;;6.50;62.00;;;;;;6003919;29;20045;-70
2022/04/03 07:06:42;;;;;;;10.23;4.90;;;6.50;62.10;;;;;;5989149;29;20367;-70
2022/04/03 07:09:43;;;;;;;9.93;5.47;;;6.50;62.10;;;;;;6020316;29;20065;-70
2022/04/03 07:12:44;;;;;;;15.10;5.22;;;6.50;62.30;;;;;;6042938;29;20139;-70
2022/04/03 07:15:45;;;;;;;9.80;5.18;;;6.50;62.50;;;;;;6026867;29;20037;-70
2022/04/03 07:18:46;;;;;;;8.27;5.03;;;6.50;62.30;;;;;;6024691;29;20099;-71
2022/04/03 07:21:46;;;;;;;9.75;4.82;;;6.50;62.30;;;;;;6025920;29;20104;-70
2022/04/03 07:24:47;;;;;;;9.27;5.32;;;6.50;62.30;;;;;;6041248;29;20041;-70
2022/04/03 07:27:48;;;;;;;8.65;5.32;;;6.60;62.40;;;;;;6026693;29;20034;-70
2022/04/03 07:30:49;;;;;;;10.35;4.80;;;6.60;62.20;;;;;;6027264;29;20049;-70
2022/04/03 07:33:50;;;;;;;10.00;5.28;;;6.60;62.20;;;;;;6026817;29;20131;-71
2022/04/03 07:36:51;;;;;;;9.32;4.82;;;6.70;62.20;;;;;;6028090;29;20041;-70
2022/04/03 07:39:52;;;;;;;8.38;5.10;;;6.70;62.20;;;;;;6009480;29;20082;-71
2022/04/03 07:42:53;;;;;;;11.60;5.63;;;6.70;62.20;;;;;;6022165;29;20102;-71
2022/04/03 07:45:53;;;;;;;32.40;5.65;;;6.80;62.10;;;;;;6042289;29;20348;-70
2022/04/03 07:48:54;;;;;;;10.60;5.32;;;6.80;62.00;;;;;;6042474;29;20038;-71
2022/04/03 07:51:55;;;;;;;9.00;5.20;;;6.90;61.80;;;;;;6025589;29;20041;-72
2022/04/03 07:54:56;;;;;;;9.07;5.07;;;7.00;61.70;;;;;;6038820;29;20044;-71
2022/04/03 07:57:57;;;;;;;12.98;4.68;;;7.00;61.70;;;;;;6042104;29;20049;-70
2022/04/03 08:00:58;;;;;;;11.15;6.03;;;7.10;61.70;;;;;;6040994;29;20045;-71
2022/04/03 08:03:59;;;;;;;9.48;5.25;;;7.20;61.60;;;;;;6042136;29;20037;-71
2022/04/03 08:07:00;;;;;;;9.25;4.78;;;7.30;61.40;;;;;;6007687;29;20049;-71
2022/04/03 08:10:08;;;;;;;11.38;4.85;;;7.30;61.20;;;;;;6025969;29;20041;-72
2022/04/03 08:13:09;;;;;;;9.63;5.40;;;7.50;60.70;;;;;;6038036;29;20042;-70
2022/04/03 08:16:10;;;;;;;8.95;5.03;;;7.50;60.60;;;;;;6025379;29;20051;-72
2022/04/03 08:19:11;;;;;;;9.90;5.00;;;7.60;60.50;;;;;;6041522;29;20033;-72
2022/04/03 08:22:12;;;;;;;8.30;5.25;;;7.70;60.40;;;;;;6026938;29;20045;-70
2022/04/03 08:25:13;;;;;;;10.90;5.70;;;7.70;60.10;;;;;;6040400;29;20561;-69
2022/04/03 08:28:16;;;;;;;11.10;5.60;;;7.70;59.50;;;;;;6027253;29;20034;-70
2022/04/03 08:31:16;;;;;;;9.32;5.38;;;7.80;59.50;;;;;;6042204;29;20140;-70
2022/04/03 08:34:17;;;;;;;10.10;5.45;;;7.80;59.30;;;;;;6039170;29;20045;-71
2022/04/03 08:37:18;;;;;;;16.88;6.32;;;7.90;59.50;;;;;;6024015;29;20045;-71
2022/04/03 08:40:21;;;;;;;11.20;6.07;;;8.00;59.40;;;;;;6029461;29;20384;-71
2022/04/03 08:43:22;;;;;;;11.70;5.75;;;8.00;59.40;;;;;;6029608;29;20565;-71
2022/04/03 08:46:25;;;;;;;10.55;5.32;;;8.20;59.40;;;;;;6042594;29;20065;-72
2022/04/03 08:49:30;;;;;;;8.13;4.65;;;8.30;59.10;;;;;;6043928;29;20093;-71
2022/04/03 08:52:32;;;;;;;8.93;5.80;;;8.40;58.70;;;;;;6031674;29;20116;-72
2022/04/03 08:55:34;;;;;;;12.63;5.75;;;8.60;58.70;;;;;;6044710;29;20057;-71
2022/04/03 08:58:35;;;;;;;10.73;5.60;;;8.60;58.30;;;;;;6028035;29;20109;-71
2022/04/03 09:01:37;;;;;;;8.95;5.07;;;8.70;58.00;;;;;;6047439;29;20045;-71
2022/04/03 09:04:38;;;;;;;10.30;5.30;;;8.80;57.60;;;;;;6024765;29;20053;-71
2022/04/03 09:07:39;;;;;;;9.88;5.38;;;8.80;57.20;;;;;;6044841;29;20198;-71
2022/04/03 09:10:44;;;;;;;9.23;5.63;;;8.80;57.20;;;;;;6012992;29;20440;-71
2022/04/03 09:13:45;;;;;;;8.32;5.18;;;8.80;57.00;;;;;;6044266;29;20045;-72
2022/04/03 09:16:46;;;;;;;13.25;5.82;;;8.70;56.70;;;;;;6030022;29;20096;-71
2022/04/03 09:19:47;;;;;;;9.60;5.47;;;8.70;56.40;;;;;;6028715;29;20049;-71
2022/04/03 09:22:53;;;;;;;10.43;5.75;;;8.70;56.40;;;;;;6029025;29;20033;-71
2022/04/03 09:25:54;;;;;;;15.13;7.40;;;8.70;56.40;;;;;;6027313;29;20141;-70
2022/04/03 09:29:11;;;;;;;9.75;5.22;;;8.70;56.40;;;;;;6045013;29;20587;-71
2022/04/03 09:32:15;;;;;;;11.35;5.93;;;8.70;56.60;;;;;;6023093;29;20530;-72
2022/04/03 09:35:17;;;;;;;11.23;5.78;;;8.80;56.40;;;;;;6043345;29;20069;-71
2022/04/03 09:38:19;;;;;;;8.50;4.95;;;8.70;56.40;;;;;;6041275;29;20033;-72
2022/04/03 09:41:20;;;;;;;11.60;6.10;;;8.60;56.20;;;;;;6025007;29;20033;-71
2022/04/03 09:44:41;;;;;;;10.88;5.50;;;8.60;56.20;;;;;;6026514;29;20066;-71
2022/04/03 09:47:42;;;;;;;12.98;6.10;;;8.50;56.00;;;;;;6039897;29;20128;-71
2022/04/03 09:51:02;;;;;;;10.93;6.13;;;8.40;55.90;;;;;;6022562;29;20386;-71
2022/04/03 09:54:03;;;;;;;11.15;5.38;;;8.30;55.90;;;;;;6036511;29;20041;-70
2022/04/03 09:57:21;;;;;;;7.78;5.20;;;8.30;56.20;;;;;;6027710;29;20085;-72
2022/04/03 10:00:32;;;;;;;10.35;4.75;;;8.20;56.00;;;;;;6022492;29;20048;-70
2022/04/03 10:03:34;;;;;;;10.52;5.22;;;8.20;55.60;;;;;;6038487;29;20048;-72
2022/04/03 10:06:36;;;;;;;9.90;5.40;;;8.20;55.90;;;;;;6024308;29;20068;-71
2022/04/03 10:09:38;;;;;;;9.30;5.53;;;8.20;55.90;;;;;;6024549;29;20156;-70
2022/04/03 10:12:39;;;;;;;8.15;4.63;;;8.20;55.90;;;;;;6025009;29;20531;-71
2022/04/03 10:15:40;;;;;;;11.05;5.93;;;8.20;55.90;;;;;;6040417;29;20450;-71
2022/04/03 10:18:41;;;;;;;11.30;5.78;;;8.20;55.60;;;;;;6023303;29;20038;-70
2022/04/03 10:21:51;;;;;;;9.50;5.30;;;8.30;55.40;;;;;;6026463;29;20449;-73
2022/04/03 10:24:56;;;;;;;12.23;6.28;;;8.30;55.50;;;;;;6039744;29;20033;-71
2022/04/03 10:28:02;;;;;;;10.65;4.90;;;8.40;55.60;;;;;;6024924;29;20183;-72
2022/04/03 10:31:07;;;;;;;10.43;5.95;;;8.50;55.50;;;;;;6028057;29;20042;-72
2022/04/03 10:34:14;;;;;;;9.98;5.50;;;8.70;55.30;;;;;;6010028;29;20041;-72
2022/04/03 10:37:36;;;;;;;9.70;5.47;;;8.80;54.80;;;;;;6020407;29;20051;-71
2022/04/03 10:40:37;;;;;;;8.55;4.65;;;9.00;54.80;;;;;;6016608;29;20045;-70
2022/04/03 10:43:40;;;;;;;10.93;4.70;;;9.10;54.40;;;;;;6039977;29;20061;-71
2022/04/03 10:47:02;;;;;;;9.60;5.05;;;9.20;54.00;;;;;;6041968;29;20036;-72
2022/04/03 10:50:05;;;;;;;10.60;5.53;;;9.30;53.70;;;;;;6023372;29;20493;-71
2022/04/03 10:53:24;;;;;;;9.02;4.68;;;9.30;53.60;;;;;;6024542;29;20192;-71
2022/04/03 10:56:26;;;;;;;10.88;5.75;;;9.30;54.20;;;;;;6022354;29;20063;-71
2022/04/03 10:59:27;;;;;;;11.98;5.20;;;9.40;53.50;;;;;;6023650;29;20053;-71
2022/04/03 11:02:28;;;;;;;11.18;4.88;;;9.50;53.20;;;;;;6040369;29;20464;-70
2022/04/03 11:05:29;;;;;;;9.85;5.45;;;9.50;53.00;;;;;;6027037;29;20443;-70
2022/04/03 11:08:53;;;;;;;8.75;4.88;;;9.50;52.10;;;;;;6024971;29;20038;-71
2022/04/03 11:12:01;;;;;;;7.43;4.43;;;9.50;52.00;;;;;;6037259;29;20446;-71
2022/04/03 11:15:12;;;;;;;8.48;5.03;;;9.50;51.80;;;;;;6015800;29;20048;-71
2022/04/03 11:18:33;;;;;;;8.65;4.45;;;9.60;52.00;;;;;;6024736;29;20033;-71
2022/04/03 11:21:34;;;;;;;12.05;5.00;;;9.70;51.40;;;;;;6023048;29;20111;-71
2022/04/03 11:24:38;;;;;;;9.10;4.60;;;9.80;51.40;;;;;;6021766;29;20524;-71
2022/04/03 11:27:40;;;;;;;10.82;4.93;;;9.90;51.50;;;;;;6024525;29;20045;-71
2022/04/03 11:30:42;;;;;;;9.55;5.28;;;10.20;51.50;;;;;;6023869;29;20040;-71
2022/04/03 11:33:43;;;;;;;9.48;5.10;;;10.40;51.10;;;;;;6042057;29;20085;-71
2022/04/03 11:36:44;;;;;;;8.90;4.82;;;10.50;50.80;;;;;;6006094;29;20029;-71
2022/04/03 11:39:46;;;;;;;8.75;4.78;;;10.70;50.10;;;;;;6043925;29;20412;-71
2022/04/03 11:42:47;;;;;;;7.03;4.05;;;10.80;49.70;;;;;;6038406;29;20110;-71
2022/04/03 11:45:59;;;;;;;9.90;4.78;;;10.80;48.80;;;;;;6025929;29;20411;-71
2022/04/03 11:49:00;;;;;;;7.65;4.43;;;10.80;48.70;;;;;;6038211;29;20034;-71
2022/04/03 11:52:07;;;;;;;9.63;4.72;;;10.90;48.90;;;;;;6026288;29;20057;-71
2022/04/03 11:55:11;;;;;;;10.35;4.75;;;10.80;49.00;;;;;;6041298;29;20059;-71
2022/04/03 11:58:12;;;;;;;8.20;4.13;;;10.80;48.70;;;;;;6040076;29;20120;-70
2022/04/03 12:01:13;;;;;;;9.80;5.15;;;10.80;48.50;;;;;;6011008;29;20038;-70
2022/04/03 12:04:14;;;;;;;8.63;4.30;;;10.80;48.50;;;;;;6016203;29;20048;-71
2022/04/03 12:07:16;;;;;;;8.52;4.65;;;10.80;48.60;;;;;;6025520;29;20037;-72
2022/04/03 12:10:28;;;;;;;7.13;4.40;;;10.80;48.80;;;;;;6024579;29;20373;-72
2022/04/03 12:13:30;;;;;;;10.25;4.55;;;10.80;48.10;;;;;;6025049;29;20459;-71
2022/04/03 12:16:32;;;;;;;7.22;4.57;;;10.90;48.40;;;;;;6029298;29;20034;-71
2022/04/03 12:19:39;;;;;;;8.50;4.47;;;10.90;48.70;;;;;;6028984;29;20123;-71
2022/04/03 12:22:43;;;;;;;8.38;4.97;;;11.00;48.70;;;;;;6027758;29;20052;-71
2022/04/03 12:25:44;;;;;;;10.38;4.13;;;11.00;48.50;;;;;;6045684;29;20046;-71
2022/04/03 12:28:45;;;;;;;9.30;4.75;;;11.00;48.60;;;;;;6045934;29;20045;-70
2022/04/03 12:32:07;;;;;;;7.55;3.85;;;11.00;48.70;;;;;;6027774;29;20184;-70
2022/04/03 12:35:09;;;;;;;10.32;4.57;;;11.00;48.70;;;;;;6043712;29;20069;-70
2022/04/03 12:38:11;;;;;;;12.85;4.80;;;11.10;49.30;;;;;;6026106;29;20056;-70
2022/04/03 12:41:13;;;;;;;8.68;4.30;;;11.20;48.60;;;;;;6029207;29;20038;-70
2022/04/03 12:44:17;;;;;;;7.53;4.50;;;11.30;48.20;;;;;;6043082;29;20675;-71
2022/04/03 12:47:23;;;;;;;5.28;3.65;;;11.40;48.20;;;;;;6027973;29;20048;-70
2022/04/03 12:50:31;;;;;;;12.20;5.28;;;11.50;48.10;;;;;;6028866;29;20522;-70
2022/04/03 12:53:32;;;;;;;5.43;3.20;;;11.50;47.90;;;;;;6011800;29;20046;-71
2022/04/03 12:58:24;;;;;;;7.55;4.38;;;11.60;47.90;;;;;;6043858;29;20033;-70
2022/04/03 12:59:53;;;;;;;7.25;4.18;;;11.60;47.90;;;;;;6026071;29;20132;-71
2022/04/03 13:02:54;;;;;;;12.15;5.10;;;11.60;47.70;;;;;;6040199;29;20038;-71
2022/04/03 13:05:56;;;;;;;8.20;4.35;;;11.60;47.50;;;;;;6026849;29;20034;-70
2022/04/03 13:08:58;;;;;;;8.05;4.47;;;11.60;47.50;;;;;;6041519;29;20057;-72
2022/04/03 13:11:59;;;;;;;8.35;4.50;;;11.70;47.50;;;;;;6038402;29;20029;-71
2022/04/03 13:15:02;;;;;;;10.25;4.40;;;11.70;47.20;;;;;;6043467;29;20379;-70
2022/04/03 13:18:03;;;;;;;7.30;4.07;;;11.70;47.10;;;;;;6042253;29;20040;-72
2022/04/03 13:21:04;;;;;;;9.25;5.05;;;11.70;47.00;;;;;;6041109;29;20049;-71
2022/04/03 13:24:05;;;;;;;5.18;3.80;;;11.70;47.10;;;;;;6024725;29;20101;-71
2022/04/03 13:27:07;;;;;;;7.22;4.38;;;11.80;47.10;;;;;;6027471;29;20041;-72
2022/04/03 13:30:08;;;;;;;9.82;4.07;;;11.90;46.90;;;;;;6027411;29;20044;-70
2022/04/03 13:33:10;;;;;;;6.03;3.67;;;12.00;46.60;;;;;;6040673;29;20045;-72
2022/04/03 13:36:11;;;;;;;8.00;4.22;;;12.00;46.60;;;;;;6039756;29;20042;-71
2022/04/03 13:39:12;;;;;;;6.32;4.35;;;12.00;46.10;;;;;;6028014;29;20102;-70
2022/04/03 13:42:13;;;;;;;6.60;3.67;;;12.00;45.50;;;;;;6039542;29;20471;-71
2022/04/03 13:45:15;;;;;;;8.90;4.50;;;11.90;45.70;;;;;;6037383;29;20084;-71
2022/04/03 13:48:16;;;;;;;7.85;4.20;;;12.00;46.20;;;;;;6026900;29;20069;-71
2022/04/03 13:51:17;;;;;;;5.70;4.00;;;12.10;45.80;;;;;;6040747;29;20113;-71
2022/04/03 13:54:18;;;;;;;6.53;4.05;;;12.10;45.10;;;;;;6026501;29;20070;-71
2022/04/03 13:57:19;;;;;;;8.90;4.78;;;12.10;44.80;;;;;;6040544;29;20361;-72
2022/04/03 14:00:20;;;;;;;8.70;4.68;;;12.00;44.90;;;;;;6042666;29;20052;-71
2022/04/03 14:03:22;;;;;;;10.02;5.00;;;12.10;45.20;;;;;;6025003;29;20164;-70
2022/04/03 14:06:22;;;;;;;8.82;5.45;;;12.10;45.20;;;;;;6041015;29;20057;-71
2022/04/03 14:09:23;;;;;;;8.07;4.88;;;12.10;45.20;;;;;;6011643;29;20049;-71
2022/04/03 14:12:24;;;;;;;7.68;4.63;;;12.10;45.20;;;;;;6025872;29;20041;-71
2022/04/03 14:15:27;;;;;;;8.05;5.00;;;12.10;45.30;;;;;;6008841;29;20453;-71
2022/04/03 14:18:28;;;;;;;7.68;4.60;;;12.00;45.50;;;;;;6023131;29;20416;-72
2022/04/03 14:21:31;;;;;;;9.80;5.13;;;12.10;45.60;;;;;;6042834;29;20040;-72
2022/04/03 14:24:34;;;;;;;8.68;4.45;;;12.00;45.50;;;;;;6025510;29;20048;-72
2022/04/03 14:27:35;;;;;;;8.35;4.13;;;12.00;45.80;;;;;;6022929;29;20073;-70
2022/04/03 14:30:36;;;;;;;7.78;4.68;;;11.90;45.90;;;;;;6040126;29;20037;-72
2022/04/03 14:33:37;;;;;;;8.57;5.00;;;11.90;45.70;;;;;;6024511;29;20049;-70
2022/04/03 14:36:38;;;;;;;9.15;5.13;;;11.80;45.50;;;;;;6021636;29;20041;-72
2022/04/03 14:39:38;;;;;;;7.78;4.18;;;11.80;45.40;;;;;;6043569;29;20037;-71
2022/04/03 14:42:39;;;;;;;9.43;5.38;;;11.70;45.40;;;;;;6022502;29;20108;-71
2022/04/03 14:45:40;;;;;;;11.73;5.32;;;11.70;45.60;;;;;;6006497;29;20033;-71
2022/04/03 14:48:41;;;;;;;9.13;5.07;;;11.50;45.70;;;;;;6037011;29;20045;-71
2022/04/03 14:51:42;;;;;;;8.35;4.40;;;11.40;46.00;;;;;;6038872;29;20128;-72
2022/04/03 14:54:43;;;;;;;9.77;5.55;;;11.40;46.20;;;;;;6025104;29;20052;-71
2022/04/03 14:57:45;;;;;;;9.45;4.53;;;11.40;46.10;;;;;;6025217;29;20033;-71
2022/04/03 15:00:49;;;;;;;8.18;4.90;;;11.30;46.50;;;;;;6024130;29;20416;-72
2022/04/03 15:03:50;;;;;;;10.50;5.38;;;11.40;46.90;;;;;;6023452;29;20546;-71
2022/04/03 15:06:51;;;;;;;10.90;5.45;;;11.40;46.90;;;;;;6039366;29;20129;-72
2022/04/03 15:09:51;;;;;;;10.82;5.47;;;11.40;46.90;;;;;;6043796;29;20396;-70
2022/04/03 15:12:52;;;;;;;9.40;5.57;;;11.30;47.00;;;;;;6037878;29;20102;-71
2022/04/03 15:15:53;;;;;;;8.35;5.25;;;11.30;47.10;;;;;;6009578;29;20049;-70
2022/04/03 15:18:54;;;;;;;10.13;5.32;;;11.30;47.10;;;;;;6022746;29;20041;-71
2022/04/03 15:21:56;;;;;;;22.75;6.25;;;11.30;47.30;;;;;;6039213;29;20042;-72
2022/04/03 15:24:56;;;;;;;11.82;5.13;;;11.30;47.70;;;;;;6021878;29;20044;-71
2022/04/03 15:27:58;;;;;;;11.60;5.28;;;11.30;47.80;;;;;;6012500;29;20041;-71
2022/04/03 15:30:59;;;;;;;10.07;5.63;;;11.30;47.80;;;;;;6027247;29;20420;-70
2022/04/03 15:34:00;;;;;;;10.90;5.22;;;11.20;47.50;;;;;;6022301;29;20108;-70
2022/04/03 15:37:00;;;;;;;13.40;5.22;;;11.20;47.70;;;;;;6036795;29;20038;-70
2022/04/03 15:40:02;;;;;;;10.13;4.82;;;11.20;47.60;;;;;;6024786;29;20067;-71
2022/04/03 15:43:02;;;;;;;8.05;4.75;;;11.10;47.60;;;;;;5998984;29;20109;-72
2022/04/03 15:46:03;;;;;;;11.85;5.63;;;11.00;47.90;;;;;;6024333;29;20131;-72
2022/04/03 15:49:05;;;;;;;9.95;6.00;;;11.10;48.00;;;;;;6041372;29;20060;-72
2022/04/03 15:52:07;;;;;;;16.85;5.93;;;11.00;47.90;;;;;;6044792;29;20133;-70
2022/04/03 15:55:09;;;;;;;9.45;4.95;;;11.00;48.00;;;;;;6024800;29;20113;-73